Time;durP1;ratioP1;P1;durP2;ratioP2;P2;SDS_P1;SDS_P2;PMS_P1;PMS_P2;Temp;Humidity;BMP_temperature;BMP_pressure;BME280_temperature;BME280_humidity;BME280_pressure;Samples;Min_cycle;Max_cycle;Signal;HPM_P1;HPM_P2
2022/04/20 00:02:55;;;;;;;8.82;5.35;;;;;;;;;;10531222;28;20738;-91
2022/04/20 00:07:57;;;;;;;8.63;5.03;;;;;;;;;;10510672;28;20478;-92
2022/04/20 00:12:59;;;;;;;5.63;4.87;;;;;;;;;;10530973;28;20417;-90
2022/04/20 00:18:03;;;;;;;7.55;4.50;;;;;;;;;;10530864;28;20911;-92
2022/04/20 00:23:05;;;;;;;7.80;4.95;;;;;;;;;;10513392;28;20400;-93
2022/04/20 00:28:07;;;;;;;7.00;4.50;;;;;;;;;;10529503;28;20501;-92
2022/04/20 00:33:10;;;;;;;6.32;4.93;;;;;;;;;;10529585;28;20505;-91
2022/04/20 00:38:12;;;;;;;7.90;5.25;;;;;;;;;;10510913;28;20427;-93
2022/04/20 00:43:14;;;;;;;5.63;4.50;;;;;;;;;;10530622;28;21185;-92
2022/04/20 00:48:20;;;;;;;7.35;4.50;;;;;;;;;;10497306;28;20432;-91
2022/04/20 00:53:22;;;;;;;5.67;3.97;;;;;;;;;;10519424;28;20830;-92
2022/04/20 00:58:24;;;;;;;11.10;6.00;;;;;;;;;;10528780;28;20849;-91
2022/04/20 01:03:28;;;;;;;10.20;5.80;;;;;;;;;;10511410;28;20400;-92
2022/04/20 01:08:30;;;;;;;7.78;5.15;;;;;;;;;;10492500;28;20442;-91
2022/04/20 01:13:32;;;;;;;6.82;4.90;;;;;;;;;;10530236;28;20396;-92
2022/04/20 01:18:42;;;;;;;6.70;4.50;;;;;;;;;;10530585;28;20425;-90
2022/04/20 01:23:45;;;;;;;5.67;3.83;;;;;;;;;;10515630;28;20420;-91
2022/04/20 01:28:48;;;;;;;6.28;3.75;;;;;;;;;;10458465;28;20445;-92
2022/04/20 01:33:50;;;;;;;5.67;3.37;;;;;;;;;;10552968;28;20388;-92
2022/04/20 01:38:54;;;;;;;4.10;3.03;;;;;;;;;;10558736;28;20907;-91
2022/04/20 01:43:55;;;;;;;3.97;2.63;;;;;;;;;;10528968;28;20396;-91
2022/04/20 01:48:59;;;;;;;4.87;1.93;;;;;;;;;;10527294;28;20880;-92
2022/04/20 01:54:03;;;;;;;2.72;1.80;;;;;;;;;;10515747;28;20404;-91
2022/04/20 01:59:05;;;;;;;3.38;1.90;;;;;;;;;;10527983;28;20889;-92
2022/04/20 02:04:07;;;;;;;2.43;1.90;;;;;;;;;;10528426;28;20483;-93
2022/04/20 02:09:10;;;;;;;2.70;0.90;;;;;;;;;;10488628;28;20790;-92
2022/04/20 02:14:12;;;;;;;0.70;0.60;;;;;;;;;;10494299;28;20489;-92
2022/04/20 02:19:14;;;;;;;1.02;0.73;;;;;;;;;;10493569;28;20445;-92
2022/04/20 02:24:17;;;;;;;2.30;1.80;;;;;;;;;;10493364;28;20493;-92
2022/04/20 02:29:20;;;;;;;5.00;2.57;;;;;;;;;;10478770;28;20508;-92
2022/04/20 02:34:21;;;;;;;5.47;2.40;;;;;;;;;;10493186;28;20404;-92
2022/04/20 02:39:25;;;;;;;6.63;3.40;;;;;;;;;;10452123;28;20426;-92
2022/04/20 02:44:27;;;;;;;6.32;2.55;;;;;;;;;;10452143;28;20412;-91
2022/04/20 02:49:29;;;;;;;2.13;1.17;;;;;;;;;;10455543;28;20414;-91
2022/04/20 02:54:33;;;;;;;1.35;0.70;;;;;;;;;;10477691;28;20426;-92
2022/04/20 02:59:35;;;;;;;1.80;0.40;;;;;;;;;;10492461;28;20430;-92
2022/04/20 03:04:37;;;;;;;0.57;0.50;;;;;;;;;;10474251;28;20500;-93
2022/04/20 03:09:41;;;;;;;0.88;0.40;;;;;;;;;;10451361;28;20611;-91
2022/04/20 03:14:42;;;;;;;1.00;0.60;;;;;;;;;;10462252;28;20832;-93
2022/04/20 03:19:45;;;;;;;1.13;0.60;;;;;;;;;;10487256;28;21137;-93
2022/04/20 03:24:48;;;;;;;0.50;0.50;;;;;;;;;;10467568;28;20486;-91
2022/04/20 03:29:50;;;;;;;0.70;0.60;;;;;;;;;;10454908;28;20511;-83
2022/04/20 03:34:52;;;;;;;1.15;0.63;;;;;;;;;;10480238;28;20431;-95
2022/04/20 03:39:57;;;;;;;1.60;0.70;;;;;;;;;;10446460;28;20435;-94
2022/04/20 03:44:58;;;;;;;2.38;0.93;;;;;;;;;;10448536;28;20741;-93
2022/04/20 03:50:00;;;;;;;1.77;0.80;;;;;;;;;;10461760;28;20418;-96
2022/04/20 03:55:05;;;;;;;0.90;0.80;;;;;;;;;;10490464;28;20437;-96
2022/04/20 04:00:08;;;;;;;1.13;0.90;;;;;;;;;;10490752;28;20402;-96
2022/04/20 04:05:11;;;;;;;1.00;0.90;;;;;;;;;;10490062;28;20494;-96
2022/04/20 04:10:15;;;;;;;1.10;1.00;;;;;;;;;;10531105;28;20446;-96
2022/04/20 04:15:18;;;;;;;1.70;0.90;;;;;;;;;;10532625;28;20404;-96
2022/04/20 04:20:21;;;;;;;1.55;1.02;;;;;;;;;;10516231;28;20433;-96
2022/04/20 04:25:25;;;;;;;1.40;1.20;;;;;;;;;;10449797;28;20465;-95
2022/04/20 04:30:28;;;;;;;1.52;1.20;;;;;;;;;;10533085;28;20404;-96
2022/04/20 04:35:32;;;;;;;1.58;1.30;;;;;;;;;;10503762;28;20441;-96
2022/04/20 04:40:35;;;;;;;1.67;1.20;;;;;;;;;;10518918;28;20388;-96
2022/04/20 04:50:56;;;;;;;1.93;1.50;;;;;;;;;;10507674;28;20442;-96
2022/04/20 04:56:01;;;;;;;2.53;1.52;;;;;;;;;;10501287;28;20404;-96
2022/04/20 05:01:03;;;;;;;2.03;1.35;;;;;;;;;;10496890;28;20448;-96
2022/04/20 05:06:05;;;;;;;1.88;1.40;;;;;;;;;;10482846;28;20404;-96
2022/04/20 05:11:09;;;;;;;3.40;1.40;;;;;;;;;;10530409;28;20420;-95
2022/04/20 05:16:11;;;;;;;1.67;1.48;;;;;;;;;;10516102;28;20667;-96
2022/04/20 05:21:13;;;;;;;3.50;1.52;;;;;;;;;;10477463;28;20458;-96
2022/04/20 05:26:17;;;;;;;2.85;1.58;;;;;;;;;;10476090;28;20405;-96
2022/04/20 05:31:19;;;;;;;4.30;1.60;;;;;;;;;;10468824;28;20441;-95
2022/04/20 05:36:21;;;;;;;2.10;1.50;;;;;;;;;;10475435;28;20457;-92
2022/04/20 05:41:40;;;;;;;3.43;1.50;;;;;;;;;;10472597;28;20481;-95
2022/04/20 05:46:43;;;;;;;3.08;1.50;;;;;;;;;;10487945;28;20418;-96
2022/04/20 05:51:45;;;;;;;2.58;1.60;;;;;;;;;;10488817;28;20430;-96
2022/04/20 05:56:49;;;;;;;2.40;1.58;;;;;;;;;;10516007;28;20427;-96
2022/04/20 06:01:51;;;;;;;3.63;1.60;;;;;;;;;;10537530;28;20412;-96
2022/04/20 06:06:53;;;;;;;2.47;1.70;;;;;;;;;;10494232;28;20477;-95
2022/04/20 06:11:57;;;;;;;4.80;2.03;;;;;;;;;;10536363;28;20416;-96
2022/04/20 06:16:59;;;;;;;2.38;1.75;;;;;;;;;;10535842;28;20896;-95
2022/04/20 06:22:01;;;;;;;2.65;1.75;;;;;;;;;;10535132;28;20754;-95
2022/04/20 06:27:07;;;;;;;2.33;1.52;;;;;;;;;;10536251;28;20765;-95
2022/04/20 06:32:10;;;;;;;2.83;1.52;;;;;;;;;;10534738;28;20412;-96
2022/04/20 06:37:15;;;;;;;2.85;1.40;;;;;;;;;;10527130;28;20409;-95
2022/04/20 06:42:19;;;;;;;2.30;1.40;;;;;;;;;;10536205;28;20458;-96
2022/04/20 06:47:21;;;;;;;3.53;1.60;;;;;;;;;;10535157;28;20434;-95
2022/04/20 07:03:06;;;;;;;2.85;1.40;;;;;;;;;;10533495;28;20856;-93
2022/04/20 07:08:08;;;;;;;1.20;1.10;;;;;;;;;;10535278;28;20428;-96
2022/04/20 07:13:12;;;;;;;2.30;1.20;;;;;;;;;;10533713;28;20775;-96
2022/04/20 07:18:14;;;;;;;4.90;1.60;;;;;;;;;;10533269;28;20431;-95
2022/04/20 07:23:18;;;;;;;2.15;1.48;;;;;;;;;;10504037;28;20437;-95
2022/04/20 07:28:21;;;;;;;2.20;1.40;;;;;;;;;;10508029;28;20470;-96
2022/04/20 07:33:24;;;;;;;1.85;1.45;;;;;;;;;;10500958;28;20495;-96
2022/04/20 07:38:27;;;;;;;2.08;1.60;;;;;;;;;;10529655;28;20415;-96
2022/04/20 07:43:31;;;;;;;3.17;1.58;;;;;;;;;;10534381;28;20405;-95
2022/04/20 07:48:34;;;;;;;1.60;1.48;;;;;;;;;;10525900;28;20959;-96
2022/04/20 07:53:36;;;;;;;2.70;1.63;;;;;;;;;;10529454;28;20419;-95
2022/04/20 07:58:39;;;;;;;3.95;1.90;;;;;;;;;;10534863;28;20444;-95
2022/04/20 08:03:41;;;;;;;3.10;1.70;;;;;;;;;;10562504;28;20392;-96
2022/04/20 08:08:43;;;;;;;3.22;1.95;;;;;;;;;;10557325;28;20501;-95
2022/04/20 08:19:07;;;;;;;2.50;1.80;;;;;;;;;;10517252;28;20787;-96
2022/04/20 08:24:09;;;;;;;2.67;2.08;;;;;;;;;;10517772;28;20926;-95
2022/04/20 08:29:15;;;;;;;2.60;2.40;;;;;;;;;;10533416;28;20404;-96
2022/04/20 08:34:16;;;;;;;2.55;2.00;;;;;;;;;;10529355;28;20423;-96
2022/04/20 08:39:18;;;;;;;2.10;1.80;;;;;;;;;;10512954;28;20489;-95
2022/04/20 08:44:27;;;;;;;2.33;2.10;;;;;;;;;;10514306;28;20479;-96
2022/04/20 08:49:29;;;;;;;2.13;1.90;;;;;;;;;;10525669;28;20420;-95
2022/04/20 08:54:32;;;;;;;3.53;1.73;;;;;;;;;;10492627;28;22132;-95
2022/04/20 08:59:37;;;;;;;2.60;1.92;;;;;;;;;;10529974;28;20431;-96
2022/04/20 09:04:39;;;;;;;2.00;1.80;;;;;;;;;;10528836;28;20408;-96
2022/04/20 09:09:41;;;;;;;2.83;1.90;;;;;;;;;;10528746;28;20396;-96
2022/04/20 09:14:48;;;;;;;2.95;1.80;;;;;;;;;;10530388;28;20412;-96
2022/04/20 09:19:52;;;;;;;2.72;1.40;;;;;;;;;;10528636;28;20408;-95
2022/04/20 09:24:58;;;;;;;2.65;1.60;;;;;;;;;;10530904;28;20500;-96
2022/04/20 09:30:04;;;;;;;3.10;1.90;;;;;;;;;;10514469;28;20421;-95
2022/04/20 09:35:09;;;;;;;3.00;1.73;;;;;;;;;;10477151;28;20403;-95
2022/04/20 09:40:13;;;;;;;1.80;1.58;;;;;;;;;;10507077;28;20458;-96
2022/04/20 09:45:20;;;;;;;3.13;1.88;;;;;;;;;;10524980;28;20442;-96
2022/04/20 09:50:24;;;;;;;1.80;1.70;;;;;;;;;;10509536;28;20412;-96
2022/04/20 09:55:30;;;;;;;2.58;1.70;;;;;;;;;;10522234;28;20404;-96
2022/04/20 10:00:39;;;;;;;1.95;1.75;;;;;;;;;;10530790;28;20523;-96
2022/04/20 10:05:43;;;;;;;2.30;1.57;;;;;;;;;;10531164;28;20415;-96
2022/04/20 10:10:47;;;;;;;2.33;1.70;;;;;;;;;;10531817;28;20461;-96
2022/04/20 10:16:08;;;;;;;2.17;1.90;;;;;;;;;;10530217;28;20819;-96
2022/04/20 10:21:12;;;;;;;2.13;1.90;;;;;;;;;;10514505;28;20440;-96
2022/04/20 10:26:16;;;;;;;3.07;2.10;;;;;;;;;;10509978;28;20495;-96
2022/04/20 10:31:23;;;;;;;3.33;2.00;;;;;;;;;;10500119;28;20776;-96
2022/04/20 10:36:30;;;;;;;2.05;1.80;;;;;;;;;;10532027;28;20907;-96
2022/04/20 10:41:32;;;;;;;3.43;2.07;;;;;;;;;;10541058;28;20453;-96
2022/04/20 10:46:35;;;;;;;2.83;2.20;;;;;;;;;;10538353;28;20412;-96
2022/04/20 10:51:39;;;;;;;3.20;2.30;;;;;;;;;;10535015;28;20416;-96
2022/04/20 10:56:48;;;;;;;2.67;2.20;;;;;;;;;;10537094;28;20404;-96
2022/04/20 11:02:16;;;;;;;2.35;2.15;;;;;;;;;;10534207;28;20423;-96
2022/04/20 11:07:24;;;;;;;3.08;2.35;;;;;;;;;;10502435;28;20419;-95
2022/04/20 11:23:55;;;;;;;3.30;2.20;;;;;;;;;;10479041;28;20407;-94
2022/04/20 11:28:59;;;;;;;2.97;2.40;;;;;;;;;;10486912;28;20961;-94
2022/04/20 11:34:02;;;;;;;6.40;2.80;;;;;;;;;;10504686;28;20423;-95
2022/04/20 11:39:04;;;;;;;3.10;2.75;;;;;;;;;;10463935;28;20443;-95
2022/04/20 11:44:20;;;;;;;2.90;2.60;;;;;;;;;;10472706;28;20933;-93
2022/04/20 11:49:31;;;;;;;2.80;2.50;;;;;;;;;;10476737;28;20423;-95
2022/04/20 11:54:34;;;;;;;3.35;2.63;;;;;;;;;;10461309;28;20516;-94
2022/04/20 11:59:43;;;;;;;3.63;2.47;;;;;;;;;;10505383;28;20417;-95
2022/04/20 12:04:48;;;;;;;3.20;2.50;;;;;;;;;;10495654;28;20412;-93
2022/04/20 12:09:54;;;;;;;2.90;2.10;;;;;;;;;;10522093;28;20895;-95
2022/04/20 12:15:05;;;;;;;3.87;2.57;;;;;;;;;;10515308;28;20768;-95
2022/04/20 12:20:11;;;;;;;4.28;2.63;;;;;;;;;;10520993;28;20924;-95
2022/04/20 12:25:14;;;;;;;4.95;2.65;;;;;;;;;;10534658;28;20436;-95
2022/04/20 12:30:16;;;;;;;3.88;2.72;;;;;;;;;;10574980;28;20399;-95
2022/04/20 12:35:22;;;;;;;4.53;2.53;;;;;;;;;;10553816;28;20412;-95
2022/04/20 12:40:26;;;;;;;3.43;2.60;;;;;;;;;;10525499;28;20881;-95
2022/04/20 12:45:28;;;;;;;4.15;2.33;;;;;;;;;;10536599;28;20403;-95
2022/04/20 12:50:37;;;;;;;3.75;2.10;;;;;;;;;;10526194;28;20458;-95
2022/04/20 13:02:01;;;;;;;2.80;2.10;;;;;;;;;;10485296;28;20501;-96
2022/04/20 13:06:45;;;;;;;5.45;2.20;;;;;;;;;;10466762;28;20862;-92
2022/04/20 13:11:47;;;;;;;4.18;2.20;;;;;;;;;;10480208;28;20411;-92
2022/04/20 13:16:48;;;;;;;3.80;2.07;;;;;;;;;;10490501;28;20475;-94
2022/04/20 13:21:52;;;;;;;3.97;2.60;;;;;;;;;;10511912;28;20498;-94
2022/04/20 13:32:15;;;;;;;3.65;2.40;;;;;;;;;;10450566;28;21164;-95
2022/04/20 13:37:19;;;;;;;2.80;2.20;;;;;;;;;;10474470;28;20773;-95
2022/04/20 13:42:21;;;;;;;2.88;2.30;;;;;;;;;;10469471;28;20413;-95
2022/04/20 13:47:23;;;;;;;3.03;1.90;;;;;;;;;;10473649;28;20503;-95
2022/04/20 13:52:27;;;;;;;2.53;1.93;;;;;;;;;;10468877;28;20479;-95
2022/04/20 13:57:29;;;;;;;3.53;2.00;;;;;;;;;;10460968;28;20416;-95
2022/04/20 14:02:31;;;;;;;3.00;2.10;;;;;;;;;;10469286;28;20445;-95
2022/04/20 14:07:35;;;;;;;2.45;2.20;;;;;;;;;;10469971;28;20815;-94
2022/04/20 14:12:37;;;;;;;3.00;1.95;;;;;;;;;;10479109;28;20454;-93
2022/04/20 14:17:44;;;;;;;2.33;1.90;;;;;;;;;;10458812;28;20406;-94
2022/04/20 14:22:48;;;;;;;2.47;1.80;;;;;;;;;;10474989;28;20432;-94
2022/04/20 14:33:08;;;;;;;4.70;1.90;;;;;;;;;;10483755;28;20418;-96
2022/04/20 14:38:12;;;;;;;3.72;1.95;;;;;;;;;;10474039;28;20433;-95
2022/04/20 14:43:14;;;;;;;3.03;2.00;;;;;;;;;;10473381;28;20458;-91
2022/04/20 14:48:16;;;;;;;2.78;2.42;;;;;;;;;;10484059;28;20492;-92
2022/04/20 14:53:19;;;;;;;2.40;2.00;;;;;;;;;;10491787;28;20445;-91
2022/04/20 14:58:21;;;;;;;4.63;2.33;;;;;;;;;;10489508;28;20429;-91
2022/04/20 15:03:23;;;;;;;2.22;2.03;;;;;;;;;;10496955;28;20919;-90
2022/04/20 15:08:27;;;;;;;2.87;1.57;;;;;;;;;;10513700;28;20504;-90
2022/04/20 15:13:28;;;;;;;2.15;1.55;;;;;;;;;;10510774;28;20416;-90
2022/04/20 15:18:31;;;;;;;3.55;1.73;;;;;;;;;;10517034;28;21030;-87
2022/04/20 15:23:35;;;;;;;4.20;1.90;;;;;;;;;;10509621;28;20477;-92
2022/04/20 15:28:36;;;;;;;2.92;1.70;;;;;;;;;;10485624;28;20510;-90
2022/04/20 15:33:38;;;;;;;3.50;1.80;;;;;;;;;;10495374;28;20456;-91
2022/04/20 15:38:42;;;;;;;1.63;1.50;;;;;;;;;;10484096;28;20885;-91
2022/04/20 15:43:44;;;;;;;3.13;1.83;;;;;;;;;;10502401;28;20424;-91
2022/04/20 15:48:46;;;;;;;5.77;1.83;;;;;;;;;;10492108;28;20847;-91
2022/04/20 15:53:49;;;;;;;2.25;1.98;;;;;;;;;;10467650;28;20451;-91
2022/04/20 16:04:10;;;;;;;2.33;1.83;;;;;;;;;;10510053;28;20440;-91
2022/04/20 16:09:13;;;;;;;3.30;1.65;;;;;;;;;;10459809;28;20426;-92
2022/04/20 16:14:15;;;;;;;2.55;1.80;;;;;;;;;;10484693;28;20420;-91
2022/04/20 16:19:17;;;;;;;2.58;1.77;;;;;;;;;;10509039;28;20479;-91
2022/04/20 16:24:20;;;;;;;2.57;1.80;;;;;;;;;;10492707;28;20509;-91
2022/04/20 16:29:22;;;;;;;2.88;2.10;;;;;;;;;;10466759;28;20404;-90
2022/04/20 16:34:23;;;;;;;3.43;2.10;;;;;;;;;;10506620;28;20412;-90
2022/04/20 16:39:27;;;;;;;2.85;2.13;;;;;;;;;;10491249;28;20917;-90
2022/04/20 16:44:29;;;;;;;3.28;2.60;;;;;;;;;;10455044;28;20908;-89
2022/04/20 16:49:31;;;;;;;3.90;2.03;;;;;;;;;;10477718;28;20421;-92
2022/04/20 16:54:35;;;;;;;3.60;1.63;;;;;;;;;;10456140;28;20561;-91
2022/04/20 16:59:37;;;;;;;2.25;1.70;;;;;;;;;;10461987;28;20840;-93
2022/04/20 17:04:40;;;;;;;3.67;1.98;;;;;;;;;;10489920;28;20406;-93
2022/04/20 17:09:44;;;;;;;3.20;1.40;;;;;;;;;;10514140;28;20410;-93
2022/04/20 17:14:46;;;;;;;2.75;1.67;;;;;;;;;;10481303;28;20438;-93
2022/04/20 17:19:48;;;;;;;4.10;1.48;;;;;;;;;;10458563;28;20778;-92
2022/04/20 17:30:16;;;;;;;2.60;1.60;;;;;;;;;;10474375;28;20411;-92
2022/04/20 17:40:38;;;;;;;3.00;1.70;;;;;;;;;;10457669;28;20420;-92
2022/04/20 17:45:40;;;;;;;3.23;1.67;;;;;;;;;;10471886;28;21118;-91
2022/04/20 17:50:43;;;;;;;3.33;1.60;;;;;;;;;;10476900;28;20425;-92
2022/04/20 17:55:46;;;;;;;5.03;1.98;;;;;;;;;;10470850;28;20508;-92
2022/04/20 18:00:48;;;;;;;2.77;1.83;;;;;;;;;;10475615;28;20486;-92
2022/04/20 18:05:51;;;;;;;3.17;1.80;;;;;;;;;;10481133;28;20426;-92
2022/04/20 18:10:54;;;;;;;3.40;2.20;;;;;;;;;;10508817;28;20498;-91
2022/04/20 18:15:57;;;;;;;2.90;1.80;;;;;;;;;;10457780;28;20416;-91
2022/04/20 18:20:59;;;;;;;3.20;2.00;;;;;;;;;;10470725;28;20465;-91
2022/04/20 18:26:03;;;;;;;1.90;1.70;;;;;;;;;;10470576;28;20417;-92
2022/04/20 18:31:06;;;;;;;2.42;2.13;;;;;;;;;;10454506;28;20398;-93
2022/04/20 18:36:08;;;;;;;2.88;2.33;;;;;;;;;;10460837;28;20491;-79
2022/04/20 18:41:12;;;;;;;2.53;2.30;;;;;;;;;;10473382;28;20415;-91
2022/04/20 18:46:14;;;;;;;3.65;2.40;;;;;;;;;;10472496;28;20481;-92
2022/04/20 18:51:16;;;;;;;5.40;2.97;;;;;;;;;;10474805;28;20415;-91
2022/04/20 19:01:39;;;;;;;3.97;2.75;;;;;;;;;;10466640;28;20402;-91
2022/04/20 19:06:41;;;;;;;3.90;3.10;;;;;;;;;;10488165;28;20431;-92
2022/04/20 19:11:44;;;;;;;3.87;2.80;;;;;;;;;;10461805;28;20490;-89
2022/04/20 19:16:47;;;;;;;3.53;3.00;;;;;;;;;;10473942;28;20425;-92
2022/04/20 19:21:54;;;;;;;4.70;3.23;;;;;;;;;;10471012;28;20460;-91
2022/04/20 19:26:57;;;;;;;4.03;3.40;;;;;;;;;;10513187;28;20416;-90
2022/04/20 19:32:00;;;;;;;5.13;4.25;;;;;;;;;;10505707;28;20404;-92
2022/04/20 19:37:02;;;;;;;6.57;4.07;;;;;;;;;;10493477;28;20421;-92
2022/04/20 19:42:10;;;;;;;7.13;4.55;;;;;;;;;;10480228;28;20501;-90
2022/04/20 19:47:12;;;;;;;6.82;4.38;;;;;;;;;;10488545;28;20477;-91
2022/04/20 19:52:15;;;;;;;5.97;4.30;;;;;;;;;;10473230;28;20450;-90
2022/04/20 19:57:18;;;;;;;7.60;5.40;;;;;;;;;;10450937;28;20410;-91
2022/04/20 20:02:20;;;;;;;7.73;5.00;;;;;;;;;;10482260;28;20407;-92
2022/04/20 20:07:22;;;;;;;10.82;8.35;;;;;;;;;;10461321;28;20409;-91
2022/04/20 20:12:27;;;;;;;11.40;7.60;;;;;;;;;;10493738;28;20947;-92
2022/04/20 20:17:29;;;;;;;10.48;7.75;;;;;;;;;;10475208;28;20988;-91
2022/04/20 20:22:31;;;;;;;8.95;7.20;;;;;;;;;;10480495;28;20471;-91
2022/04/20 20:32:54;;;;;;;6.72;5.63;;;;;;;;;;10505864;28;20442;-91
2022/04/20 20:37:56;;;;;;;7.10;5.38;;;;;;;;;;10458838;28;20473;-92
2022/04/20 20:42:59;;;;;;;6.13;5.28;;;;;;;;;;10496368;28;20403;-92
2022/04/20 20:48:02;;;;;;;7.50;5.30;;;;;;;;;;10505374;28;20745;-91
2022/04/20 20:53:06;;;;;;;5.82;5.07;;;;;;;;;;10479856;28;20488;-93
2022/04/20 20:58:11;;;;;;;7.47;5.20;;;;;;;;;;10475029;28;20432;-92
2022/04/20 21:03:13;;;;;;;8.48;5.53;;;;;;;;;;10455343;28;20427;-91
2022/04/20 21:08:16;;;;;;;7.10;5.30;;;;;;;;;;10444620;28;20407;-90
2022/04/20 21:13:20;;;;;;;7.65;5.63;;;;;;;;;;10471508;28;20421;-91
2022/04/20 21:18:22;;;;;;;7.15;5.50;;;;;;;;;;10458102;28;20423;-91
2022/04/20 21:23:24;;;;;;;6.13;5.47;;;;;;;;;;10471872;28;20496;-89
2022/04/20 21:28:27;;;;;;;8.15;5.57;;;;;;;;;;10497931;28;20492;-90
2022/04/20 21:33:29;;;;;;;7.23;5.20;;;;;;;;;;10510917;28;20519;-90
2022/04/20 21:38:31;;;;;;;8.02;5.85;;;;;;;;;;10457746;28;20933;-90
2022/04/20 21:43:35;;;;;;;5.88;5.20;;;;;;;;;;10469499;28;20982;-91
2022/04/20 21:48:37;;;;;;;6.93;5.80;;;;;;;;;;10484870;28;20838;-90
2022/04/20 21:53:39;;;;;;;9.95;5.65;;;;;;;;;;10487549;28;20507;-91
2022/04/20 21:58:43;;;;;;;8.13;5.68;;;;;;;;;;10517553;28;20443;-91
2022/04/20 22:09:13;;;;;;;7.80;6.50;;;;;;;;;;10513800;28;20388;-90
2022/04/20 22:14:16;;;;;;;9.90;6.13;;;;;;;;;;10501125;28;20941;-91
2022/04/20 22:19:19;;;;;;;8.35;6.13;;;;;;;;;;10527143;28;20436;-92
2022/04/20 22:24:21;;;;;;;7.22;6.10;;;;;;;;;;10486476;28;20491;-91
2022/04/20 22:29:26;;;;;;;8.60;6.03;;;;;;;;;;10514817;28;20416;-92
2022/04/20 22:34:28;;;;;;;6.75;6.00;;;;;;;;;;10523682;28;20416;-91
2022/04/20 22:39:30;;;;;;;9.40;6.25;;;;;;;;;;10499974;28;20495;-92
2022/04/20 22:44:34;;;;;;;8.00;6.35;;;;;;;;;;10519300;28;20428;-92
2022/04/20 22:49:35;;;;;;;8.52;6.38;;;;;;;;;;10495144;28;20420;-91
2022/04/20 22:54:38;;;;;;;7.10;5.93;;;;;;;;;;10517369;28;20436;-93
2022/04/20 22:59:45;;;;;;;7.82;6.18;;;;;;;;;;10485122;28;20437;-92
2022/04/20 23:04:47;;;;;;;7.20;6.20;;;;;;;;;;10516271;28;20425;-91
2022/04/20 23:09:50;;;;;;;8.50;6.17;;;;;;;;;;10526549;28;20450;-91
2022/04/20 23:14:53;;;;;;;8.57;6.53;;;;;;;;;;10509608;28;20455;-91
2022/04/20 23:19:55;;;;;;;8.32;6.50;;;;;;;;;;10530009;28;20497;-91
2022/04/20 23:30:23;;;;;;;7.72;6.70;;;;;;;;;;10437394;28;20723;-92
2022/04/20 23:35:25;;;;;;;9.13;7.10;;;;;;;;;;10463195;28;20424;-92
2022/04/20 23:40:27;;;;;;;9.48;6.80;;;;;;;;;;10476702;28;20463;-91
2022/04/20 23:45:33;;;;;;;8.67;7.30;;;;;;;;;;10486536;28;20507;-91
2022/04/20 23:50:35;;;;;;;8.73;7.53;;;;;;;;;;10473075;28;20409;-89
2022/04/20 23:55:37;;;;;;;8.65;6.93;;;;;;;;;;10476862;28;20512;-92
